createdAt,value
2022-12-04T00:02:41.906Z,4.07
2022-12-04T00:05:44.897Z,4.07
2022-12-04T00:08:48.480Z,4.03
2022-12-04T00:11:51.720Z,4.03
2022-12-04T00:18:18.217Z,3.92
2022-12-04T00:21:21.394Z,3.88
2022-12-04T00:24:26.199Z,3.83
2022-12-04T00:27:29.355Z,3.73
2022-12-04T00:30:32.909Z,3.71
2022-12-04T00:33:36.527Z,3.68
2022-12-04T00:36:42.451Z,3.67
2022-12-04T00:39:45.300Z,3.63
2022-12-04T00:42:50.502Z,3.60
2022-12-04T00:45:53.476Z,3.62
2022-12-04T00:49:02.826Z,3.62
2022-12-04T00:52:06.053Z,3.57
2022-12-04T00:55:09.751Z,3.51
2022-12-04T00:58:12.577Z,3.44
2022-12-04T01:01:20.276Z,3.44
2022-12-04T01:04:29.426Z,3.39
2022-12-04T01:07:32.448Z,3.35
2022-12-04T01:10:35.750Z,3.27
2022-12-04T01:13:39.361Z,3.23
2022-12-04T01:16:43.727Z,3.18
2022-12-04T01:19:59.008Z,3.11
2022-12-04T01:23:02.299Z,3.12
2022-12-04T01:26:05.342Z,3.09
2022-12-04T01:29:08.782Z,3.08
2022-12-04T01:32:12.035Z,3.01
2022-12-04T01:35:15.420Z,3.01
2022-12-04T01:38:18.349Z,2.99
2022-12-04T01:41:27.341Z,2.90
2022-12-04T01:44:33.169Z,2.86
2022-12-04T01:47:36.037Z,2.84
2022-12-04T01:50:38.965Z,2.78
2022-12-04T01:53:43.766Z,2.75
2022-12-04T01:56:51.901Z,2.69
2022-12-04T02:00:02.631Z,2.71
2022-12-04T02:03:05.444Z,2.65
2022-12-04T02:06:08.681Z,2.65
2022-12-04T02:09:11.659Z,2.66
2022-12-04T02:12:44.405Z,2.64
2022-12-04T02:16:02.247Z,2.57
2022-12-04T02:19:26.930Z,2.55
2022-12-04T02:22:51.562Z,2.58
2022-12-04T02:26:12.912Z,2.55
2022-12-04T02:29:37.152Z,2.51
2022-12-04T02:32:44.153Z,2.42
2022-12-04T02:36:05.848Z,2.48
2022-12-04T02:39:15.383Z,2.59
2022-12-04T02:42:33.070Z,2.66
2022-12-04T02:45:41.076Z,2.56
2022-12-04T02:48:47.017Z,2.58
2022-12-04T02:51:50.716Z,2.53
2022-12-04T02:54:58.222Z,2.59
2022-12-04T02:58:06.128Z,2.62
2022-12-04T03:01:20.789Z,2.71
2022-12-04T03:04:26.476Z,2.80
2022-12-04T03:07:40.688Z,2.88
2022-12-04T03:10:50.408Z,2.90
2022-12-04T03:14:23.740Z,2.95
2022-12-04T03:17:34.414Z,2.94
2022-12-04T03:20:38.713Z,2.89
2022-12-04T03:23:50.392Z,2.84
2022-12-04T03:26:59.010Z,2.84
2022-12-04T03:30:14.834Z,2.83
2022-12-04T03:33:21.930Z,2.82
2022-12-04T03:36:38.238Z,2.83
2022-12-04T03:39:44.120Z,2.83
2022-12-04T03:42:51.987Z,2.80
2022-12-04T03:46:10.758Z,2.86
2022-12-04T03:49:24.363Z,2.89
2022-12-04T03:52:50.018Z,2.95
2022-12-04T03:56:09.229Z,3.01
2022-12-04T03:59:24.737Z,3.02
2022-12-04T04:02:33.933Z,3.04
2022-12-04T04:05:37.437Z,3.06
2022-12-04T04:08:46.301Z,3.05
2022-12-04T04:12:07.299Z,3.06
2022-12-04T04:15:34.626Z,3.05
2022-12-04T04:18:57.479Z,3.09
2022-12-04T04:22:22.351Z,3.07
2022-12-04T04:25:26.531Z,3.05
2022-12-04T04:28:40.885Z,3.04
2022-12-04T04:31:53.493Z,3.03
2022-12-04T04:34:56.414Z,3.02
2022-12-04T04:38:14.418Z,3.02
2022-12-04T04:41:25.137Z,3.01
2022-12-04T04:44:54.706Z,3.01
2022-12-04T04:48:03.095Z,3.01
2022-12-04T04:51:09.104Z,3.01
2022-12-04T04:54:14.368Z,3.02
2022-12-04T04:57:32.321Z,3.01
2022-12-04T05:00:35.191Z,3.02
2022-12-04T05:03:47.360Z,3.02
2022-12-04T05:06:51.644Z,3.01
2022-12-04T05:09:54.837Z,3.00
2022-12-04T05:12:57.908Z,3.01
2022-12-04T05:16:04.058Z,2.99
2022-12-04T05:19:44.972Z,2.99
2022-12-04T05:22:47.949Z,2.98
2022-12-04T05:26:00.889Z,2.96
2022-12-04T05:29:04.360Z,2.97
2022-12-04T05:32:07.391Z,2.97
2022-12-04T05:35:13.404Z,2.96
2022-12-04T05:38:16.284Z,2.96
2022-12-04T05:41:19.199Z,2.97
2022-12-04T05:44:23.743Z,2.96
2022-12-04T05:47:26.606Z,2.95
2022-12-04T05:50:29.754Z,2.95
2022-12-04T05:53:35.583Z,2.94
2022-12-04T05:56:38.718Z,2.94
2022-12-04T05:59:41.673Z,2.95
2022-12-04T06:02:44.530Z,2.92
2022-12-04T06:05:47.627Z,2.91
2022-12-04T06:08:52.954Z,2.92
2022-12-04T06:11:58.572Z,2.91
2022-12-04T06:15:01.491Z,2.89
2022-12-04T06:18:04.455Z,2.89
2022-12-04T06:21:07.392Z,2.89
2022-12-04T06:24:15.421Z,2.87
2022-12-04T06:27:33.522Z,2.87
2022-12-04T06:30:36.470Z,2.86
2022-12-04T06:33:39.894Z,2.85
2022-12-04T06:36:43.024Z,2.84
2022-12-04T06:39:46.130Z,2.84
2022-12-04T06:42:48.884Z,2.82
2022-12-04T06:46:02.714Z,2.83
2022-12-04T06:49:05.566Z,2.83
2022-12-04T06:52:08.511Z,2.82
2022-12-04T06:55:11.316Z,2.83
2022-12-04T06:58:14.216Z,2.83
2022-12-04T07:01:20.266Z,2.82
2022-12-04T07:04:23.708Z,2.82
2022-12-04T07:07:26.818Z,2.82
2022-12-04T07:10:29.928Z,2.82
2022-12-04T07:13:32.804Z,2.86
2022-12-04T07:16:40.792Z,2.88
2022-12-04T07:19:44.248Z,2.90
2022-12-04T07:22:47.219Z,2.92
2022-12-04T07:25:50.164Z,2.93
2022-12-04T07:28:54.434Z,2.94
2022-12-04T07:31:57.612Z,2.95
2022-12-04T07:35:00.595Z,2.96
2022-12-04T07:38:03.344Z,2.98
2022-12-04T07:41:07.341Z,2.99
2022-12-04T07:44:10.204Z,3.01
2022-12-04T07:47:13.593Z,3.02
2022-12-04T07:50:16.822Z,3.01
2022-12-04T07:53:19.730Z,3.02
2022-12-04T07:56:22.545Z,3.05
2022-12-04T07:59:25.684Z,3.06
2022-12-04T08:02:28.696Z,3.08
2022-12-04T08:05:32.335Z,3.09
2022-12-04T08:08:36.177Z,3.11
2022-12-04T08:11:39.510Z,3.11
2022-12-04T08:14:42.309Z,3.12
2022-12-04T08:17:45.573Z,3.11
2022-12-04T08:20:48.378Z,3.13
2022-12-04T08:23:52.640Z,3.14
2022-12-04T08:26:55.428Z,3.17
2022-12-04T08:29:58.472Z,3.20
2022-12-04T08:33:01.734Z,3.23
2022-12-04T08:36:13.764Z,3.22
2022-12-04T08:39:16.606Z,3.23
2022-12-04T08:42:19.594Z,3.23
2022-12-04T08:45:22.493Z,3.24
2022-12-04T08:48:25.844Z,3.22
2022-12-04T08:51:30.628Z,3.24
2022-12-04T08:54:36.255Z,3.26
2022-12-04T08:57:39.281Z,3.26
2022-12-04T09:00:42.650Z,3.29
2022-12-04T09:03:45.587Z,3.32
2022-12-04T09:06:48.593Z,3.39
2022-12-04T09:09:51.531Z,3.47
2022-12-04T09:12:54.813Z,3.54
2022-12-04T09:15:57.922Z,3.64
2022-12-04T09:19:00.903Z,3.67
2022-12-04T09:22:04.497Z,3.66
2022-12-04T09:25:08.091Z,3.71
2022-12-04T09:28:11.116Z,3.75
2022-12-04T09:31:16.287Z,3.77
2022-12-04T09:34:19.678Z,3.79
2022-12-04T09:37:23.021Z,3.79
2022-12-04T09:40:33.732Z,3.77
2022-12-04T09:44:03.642Z,3.85
2022-12-04T09:47:20.632Z,3.84
2022-12-04T09:50:27.656Z,3.88
2022-12-04T09:53:43.059Z,3.92
2022-12-04T09:56:53.170Z,3.96
2022-12-04T09:59:56.827Z,4.08
2022-12-04T10:03:06.266Z,4.11
2022-12-04T10:06:15.173Z,4.14
2022-12-04T10:09:56.007Z,4.27
2022-12-04T10:13:47.532Z,4.36
2022-12-04T10:17:17.977Z,4.44
2022-12-04T10:20:30.100Z,4.52
2022-12-04T10:23:45.404Z,4.63
2022-12-04T10:26:49.382Z,4.67
2022-12-04T10:29:56.911Z,4.89
2022-12-04T10:33:20.103Z,4.95
2022-12-04T10:36:25.888Z,4.92
2022-12-04T10:39:45.398Z,4.95
2022-12-04T10:42:54.454Z,4.94
2022-12-04T10:45:57.404Z,4.88
2022-12-04T10:49:07.279Z,5.02
2022-12-04T10:52:12.641Z,5.02
2022-12-04T10:55:15.766Z,5.02
2022-12-04T10:58:20.766Z,4.94
2022-12-04T11:01:24.149Z,5.01
2022-12-04T11:04:29.134Z,4.85
2022-12-04T11:07:37.633Z,4.79
2022-12-04T11:10:43.513Z,4.85
2022-12-04T11:13:46.482Z,4.90
2022-12-04T11:17:07.201Z,4.99
2022-12-04T11:20:25.078Z,4.99
2022-12-04T11:23:32.470Z,4.92
2022-12-04T11:26:37.848Z,5.14
2022-12-04T11:29:45.435Z,5.15
2022-12-04T11:32:48.538Z,5.21
2022-12-04T11:35:54.578Z,5.29
2022-12-04T11:39:15.998Z,5.20
2022-12-04T11:42:18.939Z,5.19
2022-12-04T11:45:23.769Z,5.16
2022-12-04T11:48:27.605Z,5.17
2022-12-04T11:51:53.829Z,5.10
2022-12-04T11:55:11.149Z,5.10
2022-12-04T11:58:37.172Z,5.17
2022-12-04T12:01:48.666Z,5.12
2022-12-04T12:05:24.630Z,5.15
2022-12-04T12:08:46.673Z,5.15
2022-12-04T12:11:57.659Z,5.17
2022-12-04T12:15:03.587Z,5.21
2022-12-04T12:18:33.346Z,5.15
2022-12-04T12:21:50.154Z,5.13
2022-12-04T12:25:20.108Z,5.15
2022-12-04T12:28:51.931Z,5.15
2022-12-04T12:32:29.034Z,5.18
2022-12-04T12:35:40.482Z,5.20
2022-12-04T12:38:51.767Z,5.02
2022-12-04T12:41:57.282Z,4.93
2022-12-04T12:45:07.443Z,4.90
2022-12-04T12:48:19.784Z,4.91
2022-12-04T12:51:48.565Z,4.87
2022-12-04T12:54:59.605Z,4.86
2022-12-04T12:58:12.310Z,4.86
2022-12-04T13:01:37.271Z,4.81
2022-12-04T13:04:50.545Z,4.81
2022-12-04T13:08:15.863Z,4.83
2022-12-04T13:11:21.395Z,4.84
2022-12-04T13:14:24.540Z,4.82
2022-12-04T13:17:37.743Z,4.80
2022-12-04T13:20:49.585Z,4.80
2022-12-04T13:24:16.039Z,4.80
2022-12-04T13:27:50.620Z,4.77
2022-12-04T13:31:02.707Z,4.77
2022-12-04T13:34:11.384Z,4.78
2022-12-04T13:37:35.845Z,4.78
2022-12-04T13:40:41.640Z,4.76
2022-12-04T13:43:45.352Z,4.76
2022-12-04T13:46:54.145Z,4.76
2022-12-04T13:50:30.931Z,4.76
2022-12-04T13:53:37.837Z,4.76
2022-12-04T13:56:42.951Z,4.76
2022-12-04T13:59:46.525Z,4.76
2022-12-04T14:02:55.394Z,4.79
2022-12-04T14:06:00.357Z,4.78
2022-12-04T14:09:17.790Z,4.79
2022-12-04T14:12:26.917Z,4.81
2022-12-04T14:15:32.429Z,4.82
2022-12-04T14:18:35.438Z,4.82
2022-12-04T14:21:40.422Z,4.80
2022-12-04T14:24:43.258Z,4.78
2022-12-04T14:27:52.062Z,4.80
2022-12-04T14:31:15.202Z,4.79
2022-12-04T14:34:29.542Z,4.79
2022-12-04T14:37:37.234Z,4.80
2022-12-04T14:40:45.648Z,4.78
2022-12-04T14:43:52.065Z,4.78
2022-12-04T14:46:59.293Z,4.78
2022-12-04T14:50:28.734Z,4.80
2022-12-04T14:53:49.250Z,4.82
2022-12-04T14:57:20.505Z,4.80
2022-12-04T15:00:26.787Z,4.83
2022-12-04T15:03:32.493Z,4.82
2022-12-04T15:06:36.301Z,4.82
2022-12-04T15:09:58.236Z,4.82
2022-12-04T15:13:01.154Z,4.82
2022-12-04T15:16:11.537Z,4.82
2022-12-04T15:19:19.145Z,4.81
2022-12-04T15:22:28.083Z,4.82
2022-12-04T15:25:44.719Z,4.81
2022-12-04T15:28:55.027Z,4.78
2022-12-04T15:32:03.189Z,4.71
2022-12-04T15:35:13.590Z,4.66
2022-12-04T15:38:18.749Z,4.63
2022-12-04T15:41:30.954Z,4.60
2022-12-04T15:44:35.707Z,4.59
2022-12-04T15:47:41.584Z,4.57
2022-12-04T15:50:44.744Z,4.53
2022-12-04T15:53:48.517Z,4.51
2022-12-04T15:57:07.051Z,4.49
2022-12-04T16:00:32.937Z,4.49
2022-12-04T16:03:42.443Z,4.49
2022-12-04T16:06:49.949Z,4.46
2022-12-04T16:10:02.628Z,4.44
2022-12-04T16:13:31.389Z,4.43
2022-12-04T16:16:37.785Z,4.42
2022-12-04T16:19:42.097Z,4.41
2022-12-04T16:22:45.791Z,4.40
2022-12-04T16:25:53.360Z,4.40
2022-12-04T16:28:57.193Z,4.39
2022-12-04T16:32:12.986Z,4.39
2022-12-04T16:35:17.701Z,4.38
2022-12-04T16:38:20.902Z,4.38
2022-12-04T16:41:24.498Z,4.38
2022-12-04T16:44:27.819Z,4.37
2022-12-04T16:47:30.938Z,4.34
2022-12-04T16:50:34.054Z,4.36
2022-12-04T16:53:37.248Z,4.37
2022-12-04T16:56:40.604Z,4.37
2022-12-04T16:59:46.810Z,4.37
2022-12-04T17:02:50.217Z,4.37
2022-12-04T17:05:53.188Z,4.39
2022-12-04T17:08:56.310Z,4.38
2022-12-04T17:11:59.292Z,4.37
2022-12-04T17:15:10.885Z,4.37
2022-12-04T17:18:20.793Z,4.38
2022-12-04T17:21:24.551Z,4.38
2022-12-04T17:24:27.974Z,4.37
2022-12-04T17:27:32.217Z,4.38
2022-12-04T17:30:36.458Z,4.38
2022-12-04T17:33:39.542Z,4.39
2022-12-04T17:36:43.202Z,4.39
2022-12-04T17:39:46.769Z,4.39
2022-12-04T17:42:49.781Z,4.40
2022-12-04T17:45:52.877Z,4.40
2022-12-04T17:48:57.180Z,4.40
2022-12-04T17:52:10.295Z,4.42
2022-12-04T17:55:13.487Z,4.45
2022-12-04T17:58:16.753Z,4.45
2022-12-04T18:01:25.106Z,4.45
2022-12-04T18:04:28.300Z,4.43
2022-12-04T18:07:31.810Z,4.46
2022-12-04T18:10:35.382Z,4.48
2022-12-04T18:13:41.878Z,4.48
2022-12-04T18:16:53.258Z,4.48
2022-12-04T18:20:02.651Z,4.50
2022-12-04T18:23:07.729Z,4.50
2022-12-04T18:26:12.377Z,4.51
2022-12-04T18:29:19.300Z,4.52
2022-12-04T18:32:22.406Z,4.52
2022-12-04T18:35:28.274Z,4.52
2022-12-04T18:38:32.407Z,4.54
2022-12-04T18:41:36.836Z,4.54
2022-12-04T18:44:41.086Z,4.54
2022-12-04T18:47:44.148Z,4.55
2022-12-04T18:50:47.313Z,4.57
2022-12-04T18:53:53.721Z,4.57
2022-12-04T18:56:57.669Z,4.60
2022-12-04T19:00:03.894Z,4.63
2022-12-04T19:03:15.416Z,4.66
2022-12-04T19:06:33.933Z,4.69
2022-12-04T19:10:10.418Z,4.69
2022-12-04T19:13:12.616Z,4.74
2022-12-04T19:16:17.926Z,4.72
2022-12-04T19:19:27.484Z,4.76
2022-12-04T19:22:36.923Z,4.80
2022-12-04T19:25:41.275Z,4.77
2022-12-04T19:28:44.662Z,4.77
2022-12-04T19:31:48.038Z,4.78
2022-12-04T19:34:54.002Z,4.78
2022-12-04T19:38:01.125Z,4.77
2022-12-04T19:41:13.727Z,4.77
2022-12-04T19:47:46.384Z,4.77
2022-12-04T19:50:50.555Z,4.78
2022-12-04T19:53:55.732Z,4.78
2022-12-04T19:57:01.116Z,4.79
2022-12-04T20:00:06.102Z,4.79
2022-12-04T20:03:10.535Z,4.79
2022-12-04T20:06:16.864Z,4.81
2022-12-04T20:09:22.123Z,4.78
2022-12-04T20:12:26.471Z,4.78
2022-12-04T20:15:29.763Z,4.79
2022-12-04T20:18:33.551Z,4.75
2022-12-04T20:21:36.753Z,4.73
2022-12-04T20:24:39.942Z,4.73
2022-12-04T20:27:44.678Z,4.72
2022-12-04T20:30:50.076Z,4.71
2022-12-04T20:33:54.754Z,4.71
2022-12-04T20:36:59.227Z,4.71
2022-12-04T20:40:07.795Z,4.70
2022-12-04T20:43:13.810Z,4.68
2022-12-04T20:46:24.712Z,4.68
2022-12-04T20:49:28.000Z,4.67
2022-12-04T20:52:31.990Z,4.67
2022-12-04T20:55:39.650Z,4.68
2022-12-04T20:58:43.904Z,4.69
2022-12-04T21:01:49.959Z,4.67
2022-12-04T21:04:53.048Z,4.65
2022-12-04T21:07:55.943Z,4.64
2022-12-04T21:10:59.132Z,4.64
2022-12-04T21:14:22.138Z,4.65
2022-12-04T21:17:25.032Z,4.66
2022-12-04T21:20:29.626Z,4.64
2022-12-04T21:23:32.544Z,4.63
2022-12-04T21:26:35.832Z,4.66
2022-12-04T21:29:39.765Z,4.67
2022-12-04T21:32:45.654Z,4.66
2022-12-04T21:35:48.538Z,4.67
2022-12-04T21:38:51.794Z,4.68
2022-12-04T21:42:13.294Z,4.66
2022-12-04T21:45:16.100Z,4.64
2022-12-04T21:48:22.433Z,4.62
2022-12-04T21:51:48.703Z,4.60
2022-12-04T21:54:52.618Z,4.60
2022-12-04T21:57:55.837Z,4.57
2022-12-04T22:00:58.692Z,4.57
2022-12-04T22:04:01.548Z,4.56
2022-12-04T22:07:04.449Z,4.55
2022-12-04T22:10:10.820Z,4.56
2022-12-04T22:13:14.164Z,4.54
2022-12-04T22:16:19.596Z,4.54
2022-12-04T22:19:22.975Z,4.55
2022-12-04T22:22:25.875Z,4.54
2022-12-04T22:25:32.228Z,4.54
2022-12-04T22:28:35.489Z,4.54
2022-12-04T22:31:38.471Z,4.55
2022-12-04T22:34:47.436Z,4.52
2022-12-04T22:37:50.234Z,4.53
2022-12-04T22:40:53.228Z,4.53
2022-12-04T22:43:56.130Z,4.52
2022-12-04T22:47:01.921Z,4.52
2022-12-04T22:50:06.464Z,4.54
2022-12-04T22:53:09.360Z,4.52
2022-12-04T22:56:14.977Z,4.53
2022-12-04T22:59:17.856Z,4.52
2022-12-04T23:02:24.050Z,4.52
2022-12-04T23:05:27.144Z,4.49
2022-12-04T23:08:30.284Z,4.48
2022-12-04T23:11:33.638Z,4.44
2022-12-04T23:14:37.142Z,4.40
2022-12-04T23:17:40.003Z,4.35
2022-12-04T23:20:42.969Z,4.34
2022-12-04T23:23:46.925Z,4.32
2022-12-04T23:26:49.743Z,4.31
2022-12-04T23:30:04.532Z,4.28
2022-12-04T23:33:07.520Z,4.26
2022-12-04T23:36:11.978Z,4.24
2022-12-04T23:39:14.859Z,4.23
2022-12-04T23:42:17.826Z,4.21
2022-12-04T23:45:20.655Z,4.19
2022-12-04T23:48:24.619Z,4.17
2022-12-04T23:51:28.190Z,4.17
2022-12-04T23:54:35.210Z,4.14
2022-12-04T23:57:37.951Z,4.13
